Time;durP1;ratioP1;P1;durP2;ratioP2;P2;SDS_P1;SDS_P2;PMS_P1;PMS_P2;Temp;Humidity;BMP_temperature;BMP_pressure;BME280_temperature;BME280_humidity;BME280_pressure;Samples;Min_cycle;Max_cycle;Signal;HPM_P1;HPM_P2
2023/08/14 00:02:26;;;;;;;4.68;4.20;;;;;;;25.61;78.88;100984.38;4916660;29;20052;-82
2023/08/14 00:04:54;;;;;;;4.68;4.20;;;;;;;25.62;77.64;100996.41;4916635;29;20411;-82
2023/08/14 00:07:22;;;;;;;4.82;4.35;;;;;;;25.55;77.73;100982.28;4916436;29;20056;-82
2023/08/14 00:09:50;;;;;;;5.13;4.10;;;;;;;25.51;77.45;100987.75;4916428;29;20411;-83
2023/08/14 00:12:18;;;;;;;4.78;3.97;;;;;;;25.42;77.93;100988.00;4916494;29;20056;-82
2023/08/14 00:14:46;;;;;;;4.70;3.90;;;;;;;25.63;77.53;100998.00;4916639;29;20479;-83
2023/08/14 00:17:14;;;;;;;5.18;4.25;;;;;;;25.77;76.69;100997.44;4915321;29;20048;-83
2023/08/14 00:19:42;;;;;;;4.75;4.25;;;;;;;25.77;76.23;101003.84;4915136;29;20048;-82
2023/08/14 00:22:11;;;;;;;4.50;4.10;;;;;;;25.80;76.00;101007.09;4916346;29;20044;-82
2023/08/14 00:24:40;;;;;;;5.57;4.00;;;;;;;25.59;76.97;100981.13;4916462;29;20502;-82
2023/08/14 00:27:08;;;;;;;3.92;3.63;;;;;;;25.39;77.00;100985.97;4916460;29;20056;-83
2023/08/14 00:29:36;;;;;;;6.70;4.03;;;;;;;25.39;76.86;100982.34;4915084;29;20044;-83
2023/08/14 00:32:04;;;;;;;4.43;4.03;;;;;;;25.29;76.47;100972.56;4916119;29;20431;-82
2023/08/14 00:34:32;;;;;;;4.43;4.03;;;;;;;25.44;75.96;100976.44;4915001;29;20044;-83
2023/08/14 00:37:00;;;;;;;6.25;3.88;;;;;;;25.47;74.70;100973.69;4914848;29;20055;-83
2023/08/14 00:39:28;;;;;;;5.03;4.03;;;;;;;25.60;74.33;100977.16;4914953;29;20044;-82
2023/08/14 00:41:56;;;;;;;4.72;4.32;;;;;;;25.44;75.31;100968.03;4914949;29;20052;-82
2023/08/14 00:44:24;;;;;;;3.35;3.15;;;;;;;25.32;74.29;100969.81;4914763;29;20060;-83
2023/08/14 00:46:52;;;;;;;4.07;3.70;;;;;;;25.48;73.86;100975.31;4915789;29;20154;-83
2023/08/14 00:49:21;;;;;;;4.13;3.50;;;;;;;25.30;74.71;100968.56;4905950;29;20523;-82
2023/08/14 00:51:49;;;;;;;4.40;4.00;;;;;;;25.41;74.81;100989.19;4916248;29;20051;-81
2023/08/14 00:54:17;;;;;;;3.67;3.38;;;;;;;25.27;75.45;100986.13;4914738;29;20052;-83
2023/08/14 00:56:45;;;;;;;5.65;3.88;;;;;;;25.22;76.59;100996.44;4899105;29;20048;-83
2023/08/14 00:59:13;;;;;;;5.13;4.00;;;;;;;25.31;74.34;100992.63;4916724;29;20048;-83
2023/08/14 01:01:41;;;;;;;3.65;3.35;;;;;;;25.14;75.07;100989.13;4918407;29;20055;-80
2023/08/14 01:04:09;;;;;;;4.38;3.70;;;;;;;25.05;74.70;100985.72;4899582;29;20408;-82
2023/08/14 01:06:38;;;;;;;4.05;3.70;;;;;;;25.19;74.87;100991.63;4917067;29;20051;-82
2023/08/14 01:09:06;;;;;;;4.55;4.10;;;;;;;25.10;73.53;100988.22;4919419;29;20053;-83
2023/08/14 01:11:50;;;;;;;7.88;3.55;;;;;;;25.10;73.75;100996.63;4919348;29;20037;-83
2023/08/14 01:14:26;;;;;;;4.30;3.88;;;;;;;25.22;72.25;100992.88;4910057;29;20056;-83
2023/08/14 01:17:01;;;;;;;4.45;3.50;;;;;;;25.01;72.77;100984.84;4918120;29;20048;-83
2023/08/14 01:19:34;;;;;;;4.07;3.30;;;;;;;25.02;73.39;100987.28;4918883;29;20492;-83
2023/08/14 01:22:23;;;;;;;7.32;3.92;;;;;;;24.86;72.06;100987.34;4918343;29;20071;-83
2023/08/14 01:25:10;;;;;;;7.38;4.28;;;;;;;25.01;72.13;100982.03;4919578;29;20059;-83
2023/08/14 01:27:38;;;;;;;4.32;3.67;;;;;;;24.91;71.97;100986.25;4914903;29;20507;-83
2023/08/14 01:30:07;;;;;;;4.43;3.67;;;;;;;24.64;71.16;100992.47;4914614;29;20376;-82
2023/08/14 01:32:35;;;;;;;5.18;3.95;;;;;;;24.58;71.14;100985.53;4919034;29;20044;-82
2023/08/14 01:35:03;;;;;;;5.05;3.97;;;;;;;24.62;71.07;100980.84;4928751;29;20052;-83
2023/08/14 01:37:34;;;;;;;3.85;3.45;;;;;;;24.57;71.06;100981.13;4917852;29;20056;-82
2023/08/14 01:40:11;;;;;;;4.07;3.53;;;;;;;24.45;71.49;100978.47;4919126;29;20059;-82
2023/08/14 01:42:41;;;;;;;4.60;3.50;;;;;;;24.42;71.79;100977.22;4919097;29;20503;-83
2023/08/14 01:45:21;;;;;;;3.63;3.33;;;;;;;24.49;70.30;100982.16;4917952;29;20063;-82
2023/08/14 01:47:51;;;;;;;3.63;3.33;;;;;;;24.53;70.77;100980.25;4919173;29;20052;-82
2023/08/14 01:50:21;;;;;;;3.75;3.45;;;;;;;24.53;70.80;100983.03;4919038;29;20099;-83
2023/08/14 01:52:49;;;;;;;4.43;3.80;;;;;;;24.46;70.57;100972.53;4919285;29;20047;-82
2023/08/14 01:55:17;;;;;;;4.75;3.38;;;;;;;24.40;70.57;100968.38;4917899;29;20121;-82
2023/08/14 01:57:45;;;;;;;4.47;3.70;;;;;;;24.43;71.21;100974.06;4918764;29;20052;-82
2023/08/14 02:00:14;;;;;;;17.35;3.70;;;;;;;24.39;71.81;100967.56;4918637;29;20483;-82
2023/08/14 02:02:43;;;;;;;6.00;3.55;;;;;;;24.36;70.53;100973.91;4917578;29;20067;-82
2023/08/14 02:05:11;;;;;;;3.65;3.35;;;;;;;24.36;70.10;100962.72;4918965;29;20083;-82
2023/08/14 02:07:39;;;;;;;3.70;3.40;;;;;;;24.16;71.08;100965.47;4918663;29;20044;-82
2023/08/14 02:10:08;;;;;;;3.63;3.33;;;;;;;24.33;71.29;100957.06;4917427;29;20063;-82
2023/08/14 02:12:37;;;;;;;3.63;2.95;;;;;;;24.45;69.35;100956.91;4918202;29;20052;-82
2023/08/14 02:15:08;;;;;;;4.40;3.33;;;;;;;24.20;69.29;100959.97;4918235;29;20059;-82
2023/08/14 02:17:37;;;;;;;6.00;3.85;;;;;;;24.22;70.16;100954.81;4918358;29;20499;-82
2023/08/14 02:20:05;;;;;;;3.83;3.35;;;;;;;24.15;69.03;100951.88;4918643;29;20048;-82
2023/08/14 02:22:33;;;;;;;3.60;3.25;;;;;;;24.29;69.26;100954.16;4917074;29;20510;-82
2023/08/14 02:25:01;;;;;;;5.32;2.97;;;;;;;24.19;68.53;100963.94;4918577;29;20056;-82
2023/08/14 02:27:29;;;;;;;3.50;3.20;;;;;;;24.08;69.30;100969.28;4918159;29;20071;-82
2023/08/14 02:29:58;;;;;;;4.65;3.53;;;;;;;24.08;68.95;100951.69;4918129;29;20056;-82
2023/08/14 02:32:26;;;;;;;4.63;3.40;;;;;;;24.33;68.13;100962.66;4918677;29;20416;-82
2023/08/14 02:34:56;;;;;;;4.50;3.50;;;;;;;24.26;67.02;100957.69;4917819;29;20515;-82
2023/08/14 02:37:24;;;;;;;4.65;3.90;;;;;;;24.12;68.22;100961.78;4918373;29;20059;-82
2023/08/14 02:39:52;;;;;;;5.88;3.38;;;;;;;23.98;67.50;100959.44;4917169;29;20071;-83
2023/08/14 02:42:20;;;;;;;4.13;3.33;;;;;;;23.99;68.59;100963.84;4917999;29;20059;-82
2023/08/14 02:44:50;;;;;;;3.50;3.08;;;;;;;23.93;66.45;100956.09;4918044;29;20052;-82
2023/08/14 02:47:18;;;;;;;4.72;3.22;;;;;;;23.72;67.33;100960.00;4916674;29;20052;-82
2023/08/14 02:49:46;;;;;;;5.28;3.50;;;;;;;23.96;67.41;100958.19;4917962;29;20051;-82
2023/08/14 02:52:14;;;;;;;5.03;3.50;;;;;;;24.03;66.44;100956.38;4917781;29;20067;-82
2023/08/14 02:54:43;;;;;;;3.80;3.10;;;;;;;24.15;66.60;100968.66;4917369;29;20064;-83
2023/08/14 02:57:11;;;;;;;5.90;3.45;;;;;;;24.26;65.38;100968.88;4916543;29;20483;-83
2023/08/14 02:59:40;;;;;;;3.15;2.83;;;;;;;24.11;65.41;100957.38;4916564;29;20403;-83
2023/08/14 03:02:08;;;;;;;3.67;2.97;;;;;;;24.06;66.33;100959.59;4915752;29;20063;-83
2023/08/14 03:04:36;;;;;;;3.33;3.03;;;;;;;23.94;66.06;100969.72;4932187;29;20052;-83
2023/08/14 03:07:04;;;;;;;3.38;3.00;;;;;;;23.90;66.54;100968.81;4934945;29;20051;-83
2023/08/14 03:09:32;;;;;;;3.70;3.08;;;;;;;23.98;65.63;100967.00;4936131;29;20410;-82
2023/08/14 03:12:00;;;;;;;5.30;3.25;;;;;;;23.88;65.93;100982.34;4936238;29;20058;-83
2023/08/14 03:14:28;;;;;;;3.88;3.30;;;;;;;23.61;67.35;100971.72;4935861;29;20058;-83
2023/08/14 03:16:56;;;;;;;5.10;3.15;;;;;;;23.52;66.98;100971.09;4935448;29;20048;-83
2023/08/14 03:19:24;;;;;;;4.38;2.72;;;;;;;23.37;67.98;100967.13;4934738;29;20051;-83
2023/08/14 03:21:52;;;;;;;3.05;2.80;;;;;;;23.53;66.07;100974.69;4934935;29;20060;-83
2023/08/14 03:24:20;;;;;;;4.15;3.25;;;;;;;23.56;66.47;100976.78;4935935;29;20066;-83
2023/08/14 03:26:49;;;;;;;2.58;2.38;;;;;;;23.65;67.20;100968.22;4930164;29;20048;-83
2023/08/14 03:29:18;;;;;;;3.53;3.03;;;;;;;23.92;66.33;100971.25;4915306;29;20059;-83
2023/08/14 03:31:46;;;;;;;3.20;2.90;;;;;;;24.01;65.60;100975.47;4916009;29;20044;-83
2023/08/14 03:34:14;;;;;;;3.15;2.80;;;;;;;24.06;65.71;100963.22;4916709;29;20475;-81
2023/08/14 03:36:43;;;;;;;3.33;2.78;;;;;;;24.02;63.69;100965.13;4915124;29;20048;-83
2023/08/14 03:39:12;;;;;;;2.67;2.47;;;;;;;23.72;64.30;100962.81;4915370;29;20052;-83
2023/08/14 03:41:40;;;;;;;2.60;2.40;;;;;;;23.80;65.01;100961.81;4915484;29;20052;-83
2023/08/14 03:44:08;;;;;;;3.10;2.75;;;;;;;23.84;63.29;100968.28;4914922;29;20067;-83
2023/08/14 03:46:36;;;;;;;2.88;2.50;;;;;;;23.52;63.64;100962.72;4915796;29;20040;-83
2023/08/14 03:49:05;;;;;;;3.00;2.50;;;;;;;23.45;64.46;100965.31;4916663;29;20048;-81
2023/08/14 03:51:33;;;;;;;3.15;2.85;;;;;;;23.41;64.35;100970.00;4915707;29;20063;-85
2023/08/14 03:54:01;;;;;;;2.55;2.35;;;;;;;23.43;66.07;100967.66;4900182;29;20060;-85
2023/08/14 03:56:29;;;;;;;3.53;2.50;;;;;;;23.72;65.19;100976.78;4915180;29;20062;-83
2023/08/14 03:58:57;;;;;;;6.43;2.83;;;;;;;23.75;64.74;100984.41;4915171;29;20044;-81
2023/08/14 04:01:25;;;;;;;3.05;2.83;;;;;;;23.81;63.84;100988.59;4911216;29;20055;-85
2023/08/14 04:03:53;;;;;;;5.95;2.72;;;;;;;23.83;63.68;100986.25;4912158;29;20403;-70
2023/08/14 04:06:21;;;;;;;6.28;3.50;;;;;;;23.65;71.21;100993.38;4897761;29;20049;-71
2023/08/14 04:08:49;;;;;;;15.32;3.33;;;;;;;23.23;74.50;100987.06;4927353;29;20056;-71
2023/08/14 04:11:19;;;;;;;7.18;3.60;;;;;;;22.76;75.92;100986.56;4914918;29;20052;-71
2023/08/14 04:13:47;;;;;;;8.30;3.83;;;;;;;22.43;78.40;100993.13;4911451;29;20056;-70
2023/08/14 04:16:15;;;;;;;8.07;3.15;;;;;;;22.22;79.41;100991.31;4916034;29;20056;-70
2023/08/14 04:18:44;;;;;;;6.97;3.20;;;;;;;22.04;78.18;100998.31;4905844;29;20064;-72
2023/08/14 04:21:12;;;;;;;3.33;3.03;;;;;;;21.92;74.34;100993.53;4914051;29;20504;-71
2023/08/14 04:23:40;;;;;;;3.97;3.15;;;;;;;22.00;74.97;100990.63;4912730;29;20052;-71
2023/08/14 04:26:08;;;;;;;7.22;3.13;;;;;;;22.09;78.46;100989.72;4915763;29;20052;-71
2023/08/14 04:28:36;;;;;;;3.47;2.88;;;;;;;22.10;74.08;100996.91;4915089;29;20051;-71
2023/08/14 04:31:04;;;;;;;3.63;3.10;;;;;;;22.12;74.91;100992.59;4916121;29;20056;-71
2023/08/14 04:33:32;;;;;;;4.28;3.10;;;;;;;22.13;73.88;100999.81;4915638;29;20056;-72
2023/08/14 04:36:00;;;;;;;3.38;3.00;;;;;;;22.11;73.40;100996.56;4914803;29;20059;-72
2023/08/14 04:38:30;;;;;;;3.13;2.85;;;;;;;22.11;77.32;100999.34;4914641;29;20055;-71
2023/08/14 04:41:00;;;;;;;3.50;2.78;;;;;;;22.05;73.20;101002.72;4914233;29;20056;-71
2023/08/14 04:43:31;;;;;;;4.28;3.03;;;;;;;22.03;74.29;100989.13;4915994;29;20403;-72
2023/08/14 04:46:10;;;;;;;3.67;3.15;;;;;;;22.17;74.72;100993.50;4914754;29;20079;-71
2023/08/14 04:48:38;;;;;;;3.05;2.75;;;;;;;22.18;76.19;100990.38;4914847;29;20062;-71
2023/08/14 04:51:06;;;;;;;3.42;2.92;;;;;;;22.08;73.34;100985.28;4914674;29;20052;-71
2023/08/14 04:53:35;;;;;;;6.13;3.20;;;;;;;22.18;77.93;100984.81;4916094;29;20059;-71
2023/08/14 04:56:03;;;;;;;5.20;3.33;;;;;;;22.31;77.67;100993.97;4913756;29;20052;-71
2023/08/14 04:58:31;;;;;;;5.53;2.72;;;;;;;22.35;76.17;100994.09;4914483;29;20056;-71
2023/08/14 05:01:01;;;;;;;3.97;3.33;;;;;;;22.41;76.26;101004.66;4914399;29;20059;-71
2023/08/14 05:03:29;;;;;;;3.67;3.10;;;;;;;22.49;75.62;100986.13;4916025;29;20056;-71
2023/08/14 05:05:57;;;;;;;5.50;3.00;;;;;;;22.62;74.98;100995.31;4916068;29;20059;-71
2023/08/14 05:08:25;;;;;;;4.75;2.95;;;;;;;22.73;72.92;100992.84;4914126;29;20075;-71
2023/08/14 05:10:54;;;;;;;4.95;3.03;;;;;;;22.78;74.09;100991.81;4914462;29;20059;-72
2023/08/14 05:13:22;;;;;;;3.38;3.08;;;;;;;22.84;73.39;100986.78;4914505;29;20044;-71
2023/08/14 05:15:51;;;;;;;5.72;3.15;;;;;;;22.99;70.48;100994.41;4913806;29;20052;-71
2023/08/14 05:18:35;;;;;;;4.95;2.90;;;;;;;23.20;67.28;100987.78;4945400;29;20499;-73
2023/08/14 05:21:03;;;;;;;4.90;2.67;;;;;;;23.38;68.98;100995.84;4915177;29;20048;-72
2023/08/14 05:23:31;;;;;;;4.30;2.92;;;;;;;23.48;69.73;100992.53;4913724;29;20055;-72
2023/08/14 05:25:59;;;;;;;7.90;3.05;;;;;;;23.62;66.35;100994.91;4915493;29;20060;-71
2023/08/14 05:28:27;;;;;;;4.13;2.70;;;;;;;23.71;67.67;100994.72;4915488;29;20040;-72
2023/08/14 05:30:55;;;;;;;6.20;3.03;;;;;;;23.97;68.28;100998.94;4914957;29;20121;-72
2023/08/14 05:33:23;;;;;;;4.65;3.00;;;;;;;24.00;66.82;101004.59;4915487;29;20526;-72
2023/08/14 05:35:51;;;;;;;4.13;3.20;;;;;;;24.07;63.85;101001.22;4914792;29;20055;-73
2023/08/14 05:38:19;;;;;;;6.65;3.05;;;;;;;24.18;65.38;101000.66;4915829;29;20064;-73
2023/08/14 05:40:47;;;;;;;6.88;2.90;;;;;;;24.32;64.73;101002.94;4914911;29;20055;-72
2023/08/14 05:43:16;;;;;;;5.53;2.80;;;;;;;24.47;64.39;101004.09;4915510;29;20052;-72
2023/08/14 05:45:45;;;;;;;4.40;2.60;;;;;;;24.59;63.85;101003.16;4917391;29;20407;-72
2023/08/14 05:48:14;;;;;;;6.60;2.80;;;;;;;24.48;62.88;101006.53;4918836;29;20048;-73
2023/08/14 05:50:42;;;;;;;5.43;3.20;;;;;;;24.67;64.10;101013.31;4918302;29;20407;-73
2023/08/14 05:53:10;;;;;;;4.30;2.88;;;;;;;24.79;64.76;101017.97;4918454;29;20059;-73
2023/08/14 05:55:39;;;;;;;5.85;2.28;;;;;;;24.96;64.79;101013.94;4919079;29;20059;-73
2023/08/14 05:58:08;;;;;;;3.47;2.20;;;;;;;25.10;65.46;101010.63;4918788;29;20063;-72
2023/08/14 06:00:38;;;;;;;2.80;2.60;;;;;;;25.30;63.06;101016.19;4918048;29;20052;-70
2023/08/14 06:03:08;;;;;;;4.93;2.40;;;;;;;25.42;65.35;101018.81;4918255;29;20048;-71
2023/08/14 06:05:36;;;;;;;5.10;2.58;;;;;;;25.43;64.53;101014.03;4918545;29;20048;-72
2023/08/14 06:08:04;;;;;;;5.88;2.85;;;;;;;25.65;63.67;101017.25;4918317;29;20052;-71
2023/08/14 06:10:32;;;;;;;4.35;2.58;;;;;;;25.76;63.92;101018.25;4917650;29;20055;-72
2023/08/14 06:13:00;;;;;;;3.95;2.80;;;;;;;25.93;61.65;101016.91;4918017;29;20604;-72
2023/08/14 06:15:29;;;;;;;7.38;2.70;;;;;;;26.05;61.63;101023.50;4918375;29;20511;-72
2023/08/14 06:17:57;;;;;;;3.20;2.47;;;;;;;25.74;60.86;101021.44;4918378;29;20048;-72
2023/08/14 06:20:25;;;;;;;3.10;2.80;;;;;;;26.39;61.35;101020.84;4917219;29;20063;-71
2023/08/14 06:22:53;;;;;;;3.22;2.90;;;;;;;26.50;59.14;101021.00;4918198;29;20052;-72
2023/08/14 06:25:21;;;;;;;3.45;2.83;;;;;;;26.49;59.76;101028.59;4917535;29;20499;-72
2023/08/14 06:27:49;;;;;;;4.68;2.70;;;;;;;26.80;59.72;101028.59;4917800;29;20384;-73
2023/08/14 06:30:17;;;;;;;4.47;2.75;;;;;;;26.88;60.00;101030.31;4918076;29;20048;-73
2023/08/14 06:32:44;;;;;;;3.53;2.78;;;;;;;27.14;59.73;101030.63;4918435;29;20060;-72
2023/08/14 06:35:12;;;;;;;4.55;2.60;;;;;;;27.55;59.81;101016.59;4918144;29;20068;-72
2023/08/14 06:37:40;;;;;;;5.10;2.90;;;;;;;27.73;56.63;101024.44;4918439;29;20496;-72
2023/08/14 06:40:09;;;;;;;3.75;2.78;;;;;;;27.74;58.06;101028.84;4917875;29;20044;-72
2023/08/14 06:42:37;;;;;;;3.20;2.80;;;;;;;27.86;58.32;101025.72;4918032;29;20052;-72
2023/08/14 06:45:06;;;;;;;4.15;2.92;;;;;;;28.03;56.43;101026.28;4915728;29;20060;-72
2023/08/14 06:47:43;;;;;;;3.33;2.88;;;;;;;28.38;60.04;101021.28;4918123;29;20060;-70
2023/08/14 06:50:12;;;;;;;4.07;3.10;;;;;;;28.16;56.15;101027.56;4916744;29;20067;-70
2023/08/14 06:52:41;;;;;;;3.17;2.50;;;;;;;28.20;55.98;101032.41;4917694;29;20168;-72
2023/08/14 06:55:09;;;;;;;6.05;3.10;;;;;;;28.12;56.73;101032.38;4917655;29;20048;-70
2023/08/14 06:57:37;;;;;;;4.57;2.92;;;;;;;28.42;54.27;101039.84;4916684;29;20493;-70
2023/08/14 07:00:13;;;;;;;3.15;2.88;;;;;;;28.67;55.40;101035.53;4916892;29;20062;-70
2023/08/14 07:02:43;;;;;;;3.45;2.90;;;;;;;29.20;54.84;101047.44;4916456;29;20059;-70
2023/08/14 07:05:11;;;;;;;4.45;2.92;;;;;;;29.54;52.09;101044.31;4917991;29;20052;-70
2023/08/14 07:07:39;;;;;;;3.63;3.20;;;;;;;29.61;54.18;101049.13;4917737;29;20048;-71
2023/08/14 07:10:08;;;;;;;2.92;2.60;;;;;;;29.72;53.13;101058.41;4917305;29;20048;-70
2023/08/14 07:12:36;;;;;;;5.10;3.28;;;;;;;29.83;51.05;101054.81;4917485;29;20060;-70
2023/08/14 07:15:08;;;;;;;4.07;2.80;;;;;;;29.80;52.11;101052.81;4917318;29;20044;-70
2023/08/14 07:17:36;;;;;;;3.92;2.65;;;;;;;29.76;50.70;101059.22;4916821;29;20055;-70
2023/08/14 07:20:05;;;;;;;4.38;2.80;;;;;;;29.79;51.68;101060.44;4917340;29;20243;-70
2023/08/14 07:22:38;;;;;;;5.65;2.97;;;;;;;30.03;49.50;101064.50;4917303;29;20048;-71
2023/08/14 07:25:06;;;;;;;4.70;2.50;;;;;;;30.04;51.08;101060.44;4917285;29;20376;-71
2023/08/14 07:27:34;;;;;;;2.60;2.40;;;;;;;30.36;48.16;101063.66;4917459;29;20483;-71
2023/08/14 07:30:05;;;;;;;2.70;2.50;;;;;;;30.35;48.16;101064.88;4917218;29;20399;-71
2023/08/14 07:32:33;;;;;;;3.75;2.97;;;;;;;30.34;47.25;101068.91;4917150;29;20479;-71
2023/08/14 07:35:01;;;;;;;2.60;2.40;;;;;;;30.39;47.12;101062.88;4916608;29;20495;-71
2023/08/14 07:37:29;;;;;;;3.50;2.28;;;;;;;30.44;47.20;101076.53;4915208;29;20060;-71
2023/08/14 07:39:57;;;;;;;5.03;2.55;;;;;;;30.60;45.16;101066.84;4917317;29;20052;-71
2023/08/14 07:42:25;;;;;;;3.50;2.50;;;;;;;30.50;46.97;101069.25;4917186;29;20052;-71
2023/08/14 07:44:53;;;;;;;3.08;2.88;;;;;;;30.92;45.17;101068.75;4916828;29;20052;-71
2023/08/14 07:47:21;;;;;;;2.63;2.33;;;;;;;31.05;44.80;101075.59;4916855;29;20063;-71
2023/08/14 07:49:49;;;;;;;3.50;2.65;;;;;;;31.10;44.29;101069.50;4915504;29;20055;-70
2023/08/14 07:52:17;;;;;;;2.58;2.20;;;;;;;31.05;44.43;101069.13;4916164;29;20432;-71
2023/08/14 07:54:45;;;;;;;4.50;2.70;;;;;;;31.45;44.65;101064.06;4917091;29;20056;-71
2023/08/14 07:57:13;;;;;;;4.88;3.58;;;;;;;31.29;43.02;101067.41;4915975;29;20051;-71
2023/08/14 07:59:41;;;;;;;3.20;2.50;;;;;;;31.70;42.99;101062.28;4919838;29;20045;-71
2023/08/14 08:02:09;;;;;;;2.70;2.50;;;;;;;31.69;41.85;101063.50;4916863;29;20056;-70
2023/08/14 08:04:37;;;;;;;4.43;2.63;;;;;;;31.55;43.29;101062.38;4916276;29;20056;-71
2023/08/14 08:07:08;;;;;;;2.75;2.55;;;;;;;31.38;44.06;101070.56;4916488;29;20052;-71
2023/08/14 08:09:40;;;;;;;4.23;2.60;;;;;;;31.73;40.80;101073.59;4915689;29;20139;-71
2023/08/14 08:12:09;;;;;;;2.72;2.53;;;;;;;31.81;43.00;101077.13;4916140;29;20044;-71
2023/08/14 08:14:37;;;;;;;3.00;2.70;;;;;;;31.64;41.14;101065.56;4916011;29;20063;-69
2023/08/14 08:17:05;;;;;;;13.32;4.85;;;;;;;31.90;41.89;101069.03;4916499;29;20178;-71
2023/08/14 08:19:33;;;;;;;3.13;2.83;;;;;;;31.95;42.48;101075.47;4915704;29;20052;-71
2023/08/14 08:22:01;;;;;;;3.03;2.78;;;;;;;32.13;41.37;101073.28;4915308;29;20052;-71
2023/08/14 08:24:29;;;;;;;5.53;2.97;;;;;;;31.41;42.05;101071.78;4915744;29;20048;-70
2023/08/14 08:26:57;;;;;;;4.15;2.78;;;;;;;31.94;43.70;101071.00;4915857;29;20048;-71
2023/08/14 08:29:25;;;;;;;3.72;2.53;;;;;;;31.95;42.82;101066.97;4916124;29;20059;-70
2023/08/14 08:31:53;;;;;;;4.28;2.83;;;;;;;32.00;42.20;101067.31;4915469;29;20507;-70
2023/08/14 08:34:21;;;;;;;3.47;2.50;;;;;;;32.46;42.62;101061.66;4916166;29;20056;-70
2023/08/14 08:36:49;;;;;;;3.00;2.70;;;;;;;32.38;42.19;101060.06;4916399;29;20510;-70
2023/08/14 08:39:17;;;;;;;3.03;2.83;;;;;;;32.01;43.15;101068.13;4916084;29;20052;-70
2023/08/14 08:41:48;;;;;;;3.25;2.53;;;;;;;32.10;43.33;101071.28;4915840;29;20048;-70
2023/08/14 08:44:23;;;;;;;4.18;3.10;;;;;;;32.17;41.44;101071.19;4915132;29;20060;-71
2023/08/14 08:46:54;;;;;;;2.60;2.40;;;;;;;32.46;42.48;101078.66;4898881;29;20531;-70
2023/08/14 08:49:22;;;;;;;4.47;2.60;;;;;;;32.75;41.73;101071.84;4915307;29;20052;-70
2023/08/14 08:51:52;;;;;;;3.30;3.00;;;;;;;32.64;41.46;101069.94;4915610;29;20044;-71
2023/08/14 08:54:20;;;;;;;3.83;3.00;;;;;;;32.74;41.92;101071.03;4915608;29;20048;-71
2023/08/14 08:56:48;;;;;;;3.97;2.72;;;;;;;32.83;40.05;101077.00;4914710;29;20048;-71
2023/08/14 08:59:16;;;;;;;3.63;2.72;;;;;;;32.78;41.60;101076.69;4915772;29;20048;-70
2023/08/14 09:01:45;;;;;;;4.50;3.20;;;;;;;32.87;42.60;101076.13;4914447;29;20044;-71
2023/08/14 09:04:14;;;;;;;3.45;3.13;;;;;;;32.07;42.01;101074.94;4915814;29;20052;-69
2023/08/14 09:06:42;;;;;;;3.40;3.10;;;;;;;32.49;44.31;101077.00;4915063;29;20055;-70
2023/08/14 09:09:12;;;;;;;5.55;3.17;;;;;;;32.80;41.60;101071.38;4915485;29;20052;-70
2023/08/14 09:11:40;;;;;;;4.45;2.90;;;;;;;32.74;42.38;101061.75;4914129;29;20056;-70
2023/08/14 09:14:09;;;;;;;3.33;3.03;;;;;;;32.97;41.90;101064.72;4915616;29;20044;-71
2023/08/14 09:16:37;;;;;;;5.22;4.03;;;;;;;33.03;43.83;101067.88;4914903;29;20060;-70
2023/08/14 09:19:05;;;;;;;3.42;3.10;;;;;;;33.36;43.25;101061.75;4915091;29;20083;-70
2023/08/14 09:21:33;;;;;;;3.15;2.90;;;;;;;33.37;41.98;101063.34;4919141;29;20051;-70
2023/08/14 09:24:01;;;;;;;4.63;2.97;;;;;;;33.58;41.07;101070.75;4919370;29;20052;-69
2023/08/14 09:26:29;;;;;;;5.45;3.22;;;;;;;33.48;40.77;101063.19;4919537;29;20052;-70
2023/08/14 09:28:58;;;;;;;3.97;3.63;;;;;;;33.56;40.74;101061.88;4918497;29;20063;-71
2023/08/14 09:31:31;;;;;;;4.88;2.85;;;;;;;33.80;40.31;101064.75;4919261;29;20475;-70
2023/08/14 09:34:02;;;;;;;3.25;2.95;;;;;;;33.50;41.54;101067.25;4919142;29;20056;-71
2023/08/14 09:36:35;;;;;;;2.92;2.72;;;;;;;33.67;40.67;101050.34;4919003;29;20056;-71
2023/08/14 09:39:03;;;;;;;;;;;;;;;33.83;40.99;101057.41;4919511;29;20372;-71
2023/08/14 09:41:31;;;;;;;4.65;3.45;;;;;;;33.91;41.17;101061.72;4918701;29;19923;-70
2023/08/14 09:44:00;;;;;;;4.50;3.08;;;;;;;33.76;40.54;101064.00;4918515;29;20484;-70
2023/08/14 09:46:28;;;;;;;3.78;3.47;;;;;;;33.87;40.55;101058.16;4918745;29;20044;-70
2023/08/14 09:48:57;;;;;;;4.13;3.58;;;;;;;34.11;40.43;101050.44;4918877;29;20063;-68
2023/08/14 09:51:25;;;;;;;4.10;3.33;;;;;;;33.19;42.88;101053.06;4918802;29;20499;-71
2023/08/14 09:53:56;;;;;;;3.95;3.65;;;;;;;33.38;45.86;101050.78;4918656;29;20502;-71
2023/08/14 09:56:25;;;;;;;3.17;2.97;;;;;;;33.60;40.57;101058.97;4918864;29;20467;-70
2023/08/14 09:58:54;;;;;;;3.75;3.45;;;;;;;33.95;41.64;101045.44;4918561;29;20048;-71
2023/08/14 10:01:22;;;;;;;2.70;2.50;;;;;;;34.12;40.30;101051.25;4918498;29;20039;-71
2023/08/14 10:03:54;;;;;;;3.50;3.20;;;;;;;34.48;38.78;101047.72;4919177;29;20048;-71
2023/08/14 10:06:24;;;;;;;3.25;3.05;;;;;;;34.08;39.47;101044.81;4918626;29;20052;-71
2023/08/14 10:08:57;;;;;;;3.38;3.08;;;;;;;33.56;42.31;101039.19;4918527;29;20409;-71
2023/08/14 10:11:29;;;;;;;4.97;3.20;;;;;;;33.55;41.08;101048.13;4917259;29;20423;-71
2023/08/14 10:14:06;;;;;;;7.57;3.25;;;;;;;34.09;42.58;101035.88;4918581;29;20071;-71
2023/08/14 10:16:38;;;;;;;8.90;3.70;;;;;;;34.20;40.73;101035.69;4918768;29;20056;-71
2023/08/14 10:19:12;;;;;;;5.68;3.42;;;;;;;33.81;41.23;101031.50;4902753;29;20048;-71
2023/08/14 10:21:44;;;;;;;3.95;3.55;;;;;;;34.06;43.19;101025.38;4918146;29;20052;-71
2023/08/14 10:24:12;;;;;;;3.25;2.97;;;;;;;33.90;43.79;101023.22;4918538;29;20502;-71
2023/08/14 10:26:41;;;;;;;3.63;3.30;;;;;;;34.48;42.68;101027.03;4918421;29;20052;-70
2023/08/14 10:29:09;;;;;;;3.30;2.97;;;;;;;34.67;41.41;101026.28;4918023;29;20052;-69
2023/08/14 10:31:38;;;;;;;3.35;3.00;;;;;;;34.51;40.14;101015.63;4915843;29;20052;-71
2023/08/14 10:34:06;;;;;;;3.40;3.20;;;;;;;34.79;41.19;101026.84;4918114;29;20055;-71
2023/08/14 10:36:34;;;;;;;3.38;3.08;;;;;;;34.25;42.36;101012.47;4918129;29;20052;-71
2023/08/14 10:39:08;;;;;;;3.72;3.30;;;;;;;34.55;41.06;101016.31;4917764;29;20048;-70
2023/08/14 10:41:36;;;;;;;4.03;3.25;;;;;;;34.16;41.98;101015.09;4917887;29;20056;-72
2023/08/14 10:44:06;;;;;;;3.50;3.25;;;;;;;34.66;40.82;101010.47;4916149;29;20048;-70
2023/08/14 10:46:38;;;;;;;3.42;3.05;;;;;;;34.87;41.06;101010.41;4918460;29;20511;-71
2023/08/14 10:49:06;;;;;;;5.10;3.60;;;;;;;34.76;39.96;101008.63;4917904;29;20423;-72
2023/08/14 10:51:35;;;;;;;3.47;3.15;;;;;;;34.83;40.12;101008.47;4917733;29;20044;-71
2023/08/14 10:54:14;;;;;;;3.72;2.97;;;;;;;34.84;40.44;101010.06;4917899;29;20122;-72
2023/08/14 10:56:48;;;;;;;4.30;3.35;;;;;;;35.01;43.27;101006.44;4917589;29;20044;-72
2023/08/14 10:59:28;;;;;;;3.60;3.30;;;;;;;35.14;40.14;101004.56;4918586;29;20052;-71
2023/08/14 11:02:11;;;;;;;3.42;3.13;;;;;;;34.97;39.61;101009.38;4917778;29;20048;-72
2023/08/14 11:05:00;;;;;;;3.90;3.60;;;;;;;34.72;40.79;101005.06;4917540;29;20056;-71
2023/08/14 11:07:30;;;;;;;3.10;2.80;;;;;;;34.72;43.03;101002.22;4917642;29;20060;-71
2023/08/14 11:09:59;;;;;;;3.25;2.78;;;;;;;34.65;41.47;101000.31;4917203;29;20059;-70
2023/08/14 11:12:32;;;;;;;4.10;3.15;;;;;;;34.84;42.14;100995.06;4908244;29;20065;-67
2023/08/14 11:15:00;;;;;;;3.28;3.08;;;;;;;34.29;39.14;101001.84;4898532;29;20056;-70
2023/08/14 11:17:28;;;;;;;3.58;2.75;;;;;;;34.01;41.17;100995.44;4897806;29;20064;-69
2023/08/14 11:19:56;;;;;;;3.47;3.17;;;;;;;34.24;42.04;100993.81;4898290;29;20056;-70
2023/08/14 11:22:24;;;;;;;3.50;3.20;;;;;;;34.63;41.68;100982.91;4897847;29;20064;-70
2023/08/14 11:24:52;;;;;;;3.58;2.75;;;;;;;34.98;39.03;100999.59;4898596;29;20044;-71
2023/08/14 11:27:20;;;;;;;3.45;2.78;;;;;;;35.07;41.90;100981.94;4898361;29;20056;-71
2023/08/14 11:29:49;;;;;;;3.17;2.97;;;;;;;35.20;40.44;100996.31;4898027;29;20480;-69
2023/08/14 11:32:22;;;;;;;3.25;2.88;;;;;;;34.94;40.57;100987.53;4898379;29;20044;-71
2023/08/14 11:34:51;;;;;;;3.60;2.72;;;;;;;35.03;39.36;100990.56;4897945;29;20071;-70